sensor_id;sensor_type;location;lat;lon;timestamp;pressure;altitude;pressure_sealevel;temperature;humidity
77939;BME280;67136;47.546;21.630;2024-01-16T00:00:42;98759.50;;;-0.67;95.16
77939;BME280;67136;47.546;21.630;2024-01-16T00:03:45;98748.00;;;-0.62;94.79
77939;BME280;67136;47.546;21.630;2024-01-16T00:06:47;98734.69;;;-0.81;95.84
77939;BME280;67136;47.546;21.630;2024-01-16T00:09:50;98742.94;;;-0.76;96.11
77939;BME280;67136;47.546;21.630;2024-01-16T00:12:55;98744.41;;;-1.00;97.05
77939;BME280;67136;47.546;21.630;2024-01-16T00:15:57;98743.41;;;-1.11;97.65
77939;BME280;67136;47.546;21.630;2024-01-16T00:19:03;98741.50;;;-1.08;98.16
77939;BME280;67136;47.546;21.630;2024-01-16T00:22:05;98753.47;;;-1.37;99.76
77939;BME280;67136;47.546;21.630;2024-01-16T00:25:08;98759.41;;;-1.36;99.39
77939;BME280;67136;47.546;21.630;2024-01-16T00:28:12;98778.84;;;-1.32;100.00
77939;BME280;67136;47.546;21.630;2024-01-16T00:31:14;98780.94;;;-1.39;100.00
77939;BME280;67136;47.546;21.630;2024-01-16T00:34:17;98784.75;;;-1.46;100.00
77939;BME280;67136;47.546;21.630;2024-01-16T00:37:20;98781.94;;;-1.41;100.00
77939;BME280;67136;47.546;21.630;2024-01-16T00:40:23;98785.41;;;-1.42;100.00
77939;BME280;67136;47.546;21.630;2024-01-16T00:43:25;98809.97;;;-1.68;100.00
77939;BME280;67136;47.546;21.630;2024-01-16T00:46:28;98823.03;;;-1.72;100.00
77939;BME280;67136;47.546;21.630;2024-01-16T00:49:30;98820.34;;;-1.55;100.00
77939;BME280;67136;47.546;21.630;2024-01-16T00:52:33;98826.78;;;-1.48;100.00
77939;BME280;67136;47.546;21.630;2024-01-16T00:55:36;98819.41;;;-1.68;100.00
77939;BME280;67136;47.546;21.630;2024-01-16T00:58:39;98822.88;;;-1.69;100.00
77939;BME280;67136;47.546;21.630;2024-01-16T01:01:41;98823.47;;;-1.50;100.00
77939;BME280;67136;47.546;21.630;2024-01-16T01:04:47;98820.88;;;-1.64;100.00
77939;BME280;67136;47.546;21.630;2024-01-16T01:07:50;98815.22;;;-1.55;100.00
77939;BME280;67136;47.546;21.630;2024-01-16T01:10:55;98824.69;;;-1.71;100.00
77939;BME280;67136;47.546;21.630;2024-01-16T01:13:57;98823.50;;;-1.95;100.00
77939;BME280;67136;47.546;21.630;2024-01-16T01:17:00;98830.34;;;-1.96;100.00
77939;BME280;67136;47.546;21.630;2024-01-16T01:20:03;98825.72;;;-1.89;100.00
77939;BME280;67136;47.546;21.630;2024-01-16T01:23:09;98830.66;;;-1.86;100.00
77939;BME280;67136;47.546;21.630;2024-01-16T01:26:12;98829.00;;;-1.72;100.00
77939;BME280;67136;47.546;21.630;2024-01-16T01:29:23;98837.72;;;-1.60;100.00
77939;BME280;67136;47.546;21.630;2024-01-16T01:32:25;98838.06;;;-1.66;100.00
77939;BME280;67136;47.546;21.630;2024-01-16T01:35:29;98838.88;;;-1.66;100.00
77939;BME280;67136;47.546;21.630;2024-01-16T01:38:32;98854.81;;;-1.90;100.00
77939;BME280;67136;47.546;21.630;2024-01-16T01:41:37;98851.91;;;-1.84;100.00
77939;BME280;67136;47.546;21.630;2024-01-16T01:44:40;98847.34;;;-1.95;100.00
77939;BME280;67136;47.546;21.630;2024-01-16T01:47:44;98836.34;;;-1.81;100.00
77939;BME280;67136;47.546;21.630;2024-01-16T01:50:48;98855.88;;;-1.79;100.00
77939;BME280;67136;47.546;21.630;2024-01-16T01:53:51;98860.50;;;-2.01;100.00
77939;BME280;67136;47.546;21.630;2024-01-16T01:56:58;98858.88;;;-2.02;100.00
77939;BME280;67136;47.546;21.630;2024-01-16T02:00:01;98858.34;;;-1.93;100.00
77939;BME280;67136;47.546;21.630;2024-01-16T02:03:13;98847.44;;;-1.96;100.00
77939;BME280;67136;47.546;21.630;2024-01-16T02:06:16;98858.31;;;-2.07;100.00
77939;BME280;67136;47.546;21.630;2024-01-16T02:09:19;98871.69;;;-2.02;100.00
77939;BME280;67136;47.546;21.630;2024-01-16T02:12:22;98863.09;;;-2.32;100.00
77939;BME280;67136;47.546;21.630;2024-01-16T02:15:27;98880.41;;;-2.53;100.00
77939;BME280;67136;47.546;21.630;2024-01-16T02:18:30;98890.59;;;-2.68;100.00
77939;BME280;67136;47.546;21.630;2024-01-16T02:21:38;98888.56;;;-2.46;100.00
77939;BME280;67136;47.546;21.630;2024-01-16T02:24:41;98892.00;;;-2.63;100.00
77939;BME280;67136;47.546;21.630;2024-01-16T02:27:45;98902.28;;;-2.80;100.00
77939;BME280;67136;47.546;21.630;2024-01-16T02:30:48;98901.31;;;-2.62;100.00
77939;BME280;67136;47.546;21.630;2024-01-16T02:33:51;98897.16;;;-2.47;100.00
77939;BME280;67136;47.546;21.630;2024-01-16T02:36:54;98903.28;;;-2.67;100.00
77939;BME280;67136;47.546;21.630;2024-01-16T02:39:56;98913.38;;;-2.64;100.00
77939;BME280;67136;47.546;21.630;2024-01-16T02:43:00;98925.66;;;-2.87;100.00
77939;BME280;67136;47.546;21.630;2024-01-16T02:46:02;98925.09;;;-2.60;100.00
77939;BME280;67136;47.546;21.630;2024-01-16T02:49:05;98929.78;;;-2.68;100.00
77939;BME280;67136;47.546;21.630;2024-01-16T02:52:08;98935.34;;;-2.60;100.00
77939;BME280;67136;47.546;21.630;2024-01-16T02:55:11;98938.75;;;-2.76;100.00
77939;BME280;67136;47.546;21.630;2024-01-16T02:58:13;98945.44;;;-2.74;100.00
77939;BME280;67136;47.546;21.630;2024-01-16T03:01:16;98929.97;;;-2.88;100.00
77939;BME280;67136;47.546;21.630;2024-01-16T03:04:18;98942.97;;;-2.92;100.00
77939;BME280;67136;47.546;21.630;2024-01-16T03:07:21;98945.31;;;-2.88;100.00
77939;BME280;67136;47.546;21.630;2024-01-16T03:10:24;98952.59;;;-2.80;100.00
77939;BME280;67136;47.546;21.630;2024-01-16T03:13:29;98955.53;;;-2.71;100.00
77939;BME280;67136;47.546;21.630;2024-01-16T03:16:32;98957.63;;;-2.79;100.00
77939;BME280;67136;47.546;21.630;2024-01-16T03:19:35;98964.69;;;-2.67;100.00
77939;BME280;67136;47.546;21.630;2024-01-16T03:22:37;98973.53;;;-2.57;100.00
77939;BME280;67136;47.546;21.630;2024-01-16T03:25:40;98968.31;;;-2.71;100.00
77939;BME280;67136;47.546;21.630;2024-01-16T03:28:43;98981.22;;;-2.74;100.00
77939;BME280;67136;47.546;21.630;2024-01-16T03:31:46;98989.06;;;-2.77;100.00
77939;BME280;67136;47.546;21.630;2024-01-16T03:34:51;99000.88;;;-2.57;100.00
77939;BME280;67136;47.546;21.630;2024-01-16T03:37:53;98997.13;;;-2.84;100.00
77939;BME280;67136;47.546;21.630;2024-01-16T03:40:56;98985.47;;;-2.90;100.00
77939;BME280;67136;47.546;21.630;2024-01-16T03:43:59;98989.53;;;-2.86;100.00
77939;BME280;67136;47.546;21.630;2024-01-16T03:47:01;99001.25;;;-2.99;100.00
77939;BME280;67136;47.546;21.630;2024-01-16T03:50:04;98995.59;;;-2.88;100.00
77939;BME280;67136;47.546;21.630;2024-01-16T03:53:07;99004.56;;;-2.80;100.00
77939;BME280;67136;47.546;21.630;2024-01-16T03:56:10;98995.37;;;-2.84;100.00
77939;BME280;67136;47.546;21.630;2024-01-16T03:59:12;99000.34;;;-2.98;100.00
77939;BME280;67136;47.546;21.630;2024-01-16T04:02:16;99002.00;;;-2.97;100.00
77939;BME280;67136;47.546;21.630;2024-01-16T04:05:19;99004.88;;;-2.86;100.00
77939;BME280;67136;47.546;21.630;2024-01-16T04:08:22;99006.03;;;-3.27;100.00
77939;BME280;67136;47.546;21.630;2024-01-16T04:11:25;99006.94;;;-3.11;100.00
77939;BME280;67136;47.546;21.630;2024-01-16T04:14:27;99014.06;;;-3.17;100.00
77939;BME280;67136;47.546;21.630;2024-01-16T04:17:30;99020.25;;;-3.21;100.00
77939;BME280;67136;47.546;21.630;2024-01-16T04:20:33;99019.44;;;-3.05;100.00
77939;BME280;67136;47.546;21.630;2024-01-16T04:23:36;99014.34;;;-2.88;100.00
77939;BME280;67136;47.546;21.630;2024-01-16T04:26:39;99020.56;;;-3.10;100.00
77939;BME280;67136;47.546;21.630;2024-01-16T04:29:42;99028.00;;;-2.89;100.00
77939;BME280;67136;47.546;21.630;2024-01-16T04:32:45;99039.13;;;-3.07;100.00
77939;BME280;67136;47.546;21.630;2024-01-16T04:35:48;99040.03;;;-3.08;100.00
77939;BME280;67136;47.546;21.630;2024-01-16T04:38:51;99042.09;;;-3.16;100.00
77939;BME280;67136;47.546;21.630;2024-01-16T04:41:55;99049.88;;;-3.00;100.00
77939;BME280;67136;47.546;21.630;2024-01-16T04:44:58;99045.75;;;-3.03;100.00
77939;BME280;67136;47.546;21.630;2024-01-16T04:48:01;99047.63;;;-3.06;100.00
77939;BME280;67136;47.546;21.630;2024-01-16T04:51:03;99048.63;;;-2.92;100.00
77939;BME280;67136;47.546;21.630;2024-01-16T04:54:08;99050.75;;;-2.83;100.00
77939;BME280;67136;47.546;21.630;2024-01-16T04:57:11;99061.00;;;-2.66;100.00
77939;BME280;67136;47.546;21.630;2024-01-16T05:00:17;99060.66;;;-2.77;100.00
77939;BME280;67136;47.546;21.630;2024-01-16T05:03:22;99067.06;;;-2.68;100.00
77939;BME280;67136;47.546;21.630;2024-01-16T05:06:25;99067.50;;;-2.77;100.00
77939;BME280;67136;47.546;21.630;2024-01-16T05:09:27;99078.22;;;-2.69;100.00
77939;BME280;67136;47.546;21.630;2024-01-16T05:12:30;99084.19;;;-2.87;100.00
77939;BME280;67136;47.546;21.630;2024-01-16T05:15:33;99072.38;;;-2.90;100.00
77939;BME280;67136;47.546;21.630;2024-01-16T05:18:36;99068.25;;;-2.75;100.00
77939;BME280;67136;47.546;21.630;2024-01-16T05:21:40;99084.88;;;-2.84;100.00
77939;BME280;67136;47.546;21.630;2024-01-16T05:24:43;99090.12;;;-2.87;100.00
77939;BME280;67136;47.546;21.630;2024-01-16T05:27:45;99102.69;;;-2.82;100.00
77939;BME280;67136;47.546;21.630;2024-01-16T05:30:48;99103.59;;;-2.83;100.00
77939;BME280;67136;47.546;21.630;2024-01-16T05:33:50;99101.44;;;-2.74;100.00
77939;BME280;67136;47.546;21.630;2024-01-16T05:36:53;99107.00;;;-2.83;100.00
77939;BME280;67136;47.546;21.630;2024-01-16T05:39:56;99100.22;;;-2.84;100.00
77939;BME280;67136;47.546;21.630;2024-01-16T05:43:00;99107.16;;;-2.86;100.00
77939;BME280;67136;47.546;21.630;2024-01-16T05:46:02;99111.56;;;-2.89;100.00
77939;BME280;67136;47.546;21.630;2024-01-16T05:49:05;99123.97;;;-2.82;100.00
77939;BME280;67136;47.546;21.630;2024-01-16T05:52:08;99130.13;;;-3.03;100.00
77939;BME280;67136;47.546;21.630;2024-01-16T05:55:10;99133.44;;;-3.19;100.00
77939;BME280;67136;47.546;21.630;2024-01-16T05:58:13;99145.88;;;-3.12;100.00
77939;BME280;67136;47.546;21.630;2024-01-16T06:01:16;99154.50;;;-3.14;100.00
77939;BME280;67136;47.546;21.630;2024-01-16T06:04:19;99156.44;;;-3.19;100.00
77939;BME280;67136;47.546;21.630;2024-01-16T06:07:22;99165.00;;;-3.02;100.00
77939;BME280;67136;47.546;21.630;2024-01-16T06:10:25;99169.97;;;-3.17;100.00
77939;BME280;67136;47.546;21.630;2024-01-16T06:13:27;99170.03;;;-3.00;100.00
77939;BME280;67136;47.546;21.630;2024-01-16T06:16:31;99183.03;;;-3.23;100.00
77939;BME280;67136;47.546;21.630;2024-01-16T06:19:33;99193.41;;;-3.08;100.00
77939;BME280;67136;47.546;21.630;2024-01-16T06:22:36;99197.44;;;-3.22;100.00
77939;BME280;67136;47.546;21.630;2024-01-16T06:25:38;99203.34;;;-3.02;100.00
77939;BME280;67136;47.546;21.630;2024-01-16T06:28:41;99220.31;;;-3.01;100.00
77939;BME280;67136;47.546;21.630;2024-01-16T06:31:47;99218.81;;;-2.86;100.00
77939;BME280;67136;47.546;21.630;2024-01-16T06:34:49;99228.00;;;-3.01;100.00
77939;BME280;67136;47.546;21.630;2024-01-16T06:37:52;99214.66;;;-2.89;100.00
77939;BME280;67136;47.546;21.630;2024-01-16T06:40:55;99224.09;;;-2.89;100.00
77939;BME280;67136;47.546;21.630;2024-01-16T06:43:58;99224.88;;;-2.89;100.00
77939;BME280;67136;47.546;21.630;2024-01-16T06:47:01;99228.66;;;-2.96;100.00
77939;BME280;67136;47.546;21.630;2024-01-16T06:50:04;99237.66;;;-2.89;100.00
77939;BME280;67136;47.546;21.630;2024-01-16T06:53:07;99248.41;;;-2.81;100.00
77939;BME280;67136;47.546;21.630;2024-01-16T06:56:09;99248.44;;;-2.64;100.00
77939;BME280;67136;47.546;21.630;2024-01-16T06:59:18;99254.37;;;-2.44;100.00
77939;BME280;67136;47.546;21.630;2024-01-16T07:02:26;99255.38;;;-2.30;100.00
77939;BME280;67136;47.546;21.630;2024-01-16T07:05:29;99255.34;;;-2.11;100.00
77939;BME280;67136;47.546;21.630;2024-01-16T07:08:32;99275.19;;;-1.81;100.00
77939;BME280;67136;47.546;21.630;2024-01-16T07:11:36;99273.47;;;-1.63;100.00
77939;BME280;67136;47.546;21.630;2024-01-16T07:14:39;99279.53;;;-1.49;100.00
77939;BME280;67136;47.546;21.630;2024-01-16T07:17:45;99282.09;;;-0.99;100.00
77939;BME280;67136;47.546;21.630;2024-01-16T07:20:48;99285.31;;;-1.11;99.62
77939;BME280;67136;47.546;21.630;2024-01-16T07:23:51;99292.22;;;-0.96;98.37
77939;BME280;67136;47.546;21.630;2024-01-16T07:26:57;99293.66;;;-0.75;98.24
77939;BME280;67136;47.546;21.630;2024-01-16T07:30:04;99297.84;;;-0.89;97.50
77939;BME280;67136;47.546;21.630;2024-01-16T07:33:08;99301.69;;;-0.81;97.03
77939;BME280;67136;47.546;21.630;2024-01-16T07:36:12;99311.19;;;-0.83;96.61
77939;BME280;67136;47.546;21.630;2024-01-16T07:39:15;99316.94;;;-0.47;94.84
77939;BME280;67136;47.546;21.630;2024-01-16T07:42:18;99322.56;;;-0.25;93.46
77939;BME280;67136;47.546;21.630;2024-01-16T07:45:20;99325.91;;;-0.07;92.80
77939;BME280;67136;47.546;21.630;2024-01-16T07:48:24;99324.88;;;-0.05;92.08
77939;BME280;67136;47.546;21.630;2024-01-16T07:51:27;99332.13;;;0.19;91.08
77939;BME280;67136;47.546;21.630;2024-01-16T07:54:30;99340.59;;;0.21;90.42
77939;BME280;67136;47.546;21.630;2024-01-16T07:57:35;99349.22;;;0.20;89.34
77939;BME280;67136;47.546;21.630;2024-01-16T08:00:40;99334.75;;;0.48;88.78
77939;BME280;67136;47.546;21.630;2024-01-16T08:03:43;99342.47;;;0.62;87.83
77939;BME280;67136;47.546;21.630;2024-01-16T08:06:46;99335.66;;;0.77;87.27
77939;BME280;67136;47.546;21.630;2024-01-16T08:09:50;99343.66;;;0.86;86.52
77939;BME280;67136;47.546;21.630;2024-01-16T08:12:52;99351.13;;;1.05;85.55
77939;BME280;67136;47.546;21.630;2024-01-16T08:15:55;99349.31;;;1.49;82.79
77939;BME280;67136;47.546;21.630;2024-01-16T08:19:00;99358.75;;;1.49;81.88
77939;BME280;67136;47.546;21.630;2024-01-16T08:22:04;99367.84;;;2.23;77.69
77939;BME280;67136;47.546;21.630;2024-01-16T08:25:10;99374.41;;;2.00;77.66
77939;BME280;67136;47.546;21.630;2024-01-16T08:28:13;99372.03;;;2.90;74.27
77939;BME280;67136;47.546;21.630;2024-01-16T08:31:17;99374.91;;;2.33;73.93
77939;BME280;67136;47.546;21.630;2024-01-16T08:34:21;99386.66;;;2.37;74.52
77939;BME280;67136;47.546;21.630;2024-01-16T08:37:23;99377.47;;;2.33;74.56
77939;BME280;67136;47.546;21.630;2024-01-16T08:40:28;99378.53;;;2.43;74.39
77939;BME280;67136;47.546;21.630;2024-01-16T08:43:30;99385.78;;;2.51;73.74
77939;BME280;67136;47.546;21.630;2024-01-16T08:46:35;99394.47;;;2.63;73.85
77939;BME280;67136;47.546;21.630;2024-01-16T08:49:38;99393.13;;;2.96;71.58
77939;BME280;67136;47.546;21.630;2024-01-16T08:52:47;99398.19;;;2.59;72.35
77939;BME280;67136;47.546;21.630;2024-01-16T08:55:52;99405.41;;;2.53;72.97
77939;BME280;67136;47.546;21.630;2024-01-16T08:58:54;99409.53;;;2.56;72.80
77939;BME280;67136;47.546;21.630;2024-01-16T09:01:57;99419.28;;;2.78;72.80
77939;BME280;67136;47.546;21.630;2024-01-16T09:04:59;99425.00;;;2.56;72.27
77939;BME280;67136;47.546;21.630;2024-01-16T09:08:02;99422.34;;;2.97;70.70
77939;BME280;67136;47.546;21.630;2024-01-16T09:11:06;99425.78;;;3.10;70.41
77939;BME280;67136;47.546;21.630;2024-01-16T09:14:11;99432.44;;;3.64;68.05
77939;BME280;67136;47.546;21.630;2024-01-16T09:17:14;99443.66;;;3.63;66.08
77939;BME280;67136;47.546;21.630;2024-01-16T09:20:17;99438.19;;;3.80;64.86
77939;BME280;67136;47.546;21.630;2024-01-16T09:23:20;99444.78;;;4.09;64.25
77939;BME280;67136;47.546;21.630;2024-01-16T09:26:24;99438.91;;;4.31;62.57
77939;BME280;67136;47.546;21.630;2024-01-16T09:29:27;99439.59;;;4.69;60.67
77939;BME280;67136;47.546;21.630;2024-01-16T09:32:29;99435.25;;;4.93;59.37
77939;BME280;67136;47.546;21.630;2024-01-16T09:35:33;99438.19;;;4.99;59.01
77939;BME280;67136;47.546;21.630;2024-01-16T09:38:35;99436.56;;;5.55;57.15
77939;BME280;67136;47.546;21.630;2024-01-16T09:41:39;99437.66;;;5.75;56.50
77939;BME280;67136;47.546;21.630;2024-01-16T09:44:41;99441.41;;;6.37;54.05
77939;BME280;67136;47.546;21.630;2024-01-16T09:47:47;99439.56;;;6.17;54.32
77939;BME280;67136;47.546;21.630;2024-01-16T09:50:52;99438.03;;;6.03;53.57
77939;BME280;67136;47.546;21.630;2024-01-16T09:53:56;99432.97;;;6.13;52.29
77939;BME280;67136;47.546;21.630;2024-01-16T09:57:02;99433.56;;;7.94;48.49
77939;BME280;67136;47.546;21.630;2024-01-16T10:00:12;99431.78;;;7.94;47.25
77939;BME280;67136;47.546;21.630;2024-01-16T10:03:15;99434.19;;;8.16;46.88
77939;BME280;67136;47.546;21.630;2024-01-16T10:06:24;99428.69;;;7.08;48.25
77939;BME280;67136;47.546;21.630;2024-01-16T10:09:27;99440.66;;;7.92;46.73
77939;BME280;67136;47.546;21.630;2024-01-16T10:12:30;99443.94;;;7.84;46.07
77939;BME280;67136;47.546;21.630;2024-01-16T10:15:34;99446.25;;;6.84;48.72
77939;BME280;67136;47.546;21.630;2024-01-16T10:18:37;99456.91;;;7.54;47.11
77939;BME280;67136;47.546;21.630;2024-01-16T10:21:42;99462.47;;;7.08;48.38
77939;BME280;67136;47.546;21.630;2024-01-16T10:24:45;99463.53;;;8.67;44.86
77939;BME280;67136;47.546;21.630;2024-01-16T10:27:48;99463.19;;;7.51;46.74
77939;BME280;67136;47.546;21.630;2024-01-16T10:31:01;99466.78;;;7.39;46.56
77939;BME280;67136;47.546;21.630;2024-01-16T10:34:19;99473.13;;;6.94;47.35
77939;BME280;67136;47.546;21.630;2024-01-16T10:37:23;99477.94;;;7.92;45.34
77939;BME280;67136;47.546;21.630;2024-01-16T10:40:25;99486.59;;;8.02;44.34
77939;BME280;67136;47.546;21.630;2024-01-16T10:43:31;99501.78;;;7.15;45.75
77939;BME280;67136;47.546;21.630;2024-01-16T10:46:36;99476.03;;;6.80;47.35
77939;BME280;67136;47.546;21.630;2024-01-16T10:49:39;99478.31;;;8.18;45.06
77939;BME280;67136;47.546;21.630;2024-01-16T10:52:48;99481.09;;;7.13;46.07
77939;BME280;67136;47.546;21.630;2024-01-16T10:55:57;99495.44;;;7.90;45.15
77939;BME280;67136;47.546;21.630;2024-01-16T11:02:15;99497.44;;;8.77;42.56
77939;BME280;67136;47.546;21.630;2024-01-16T11:05:20;99518.59;;;8.84;42.48
77939;BME280;67136;47.546;21.630;2024-01-16T11:08:25;99514.31;;;6.78;44.71
77939;BME280;67136;47.546;21.630;2024-01-16T11:11:34;99518.34;;;6.49;46.88
77939;BME280;67136;47.546;21.630;2024-01-16T11:14:37;99517.09;;;7.49;45.32
77939;BME280;67136;47.546;21.630;2024-01-16T11:17:44;99505.37;;;7.76;44.97
77939;BME280;67136;47.546;21.630;2024-01-16T11:20:47;99510.12;;;7.71;44.24
77939;BME280;67136;47.546;21.630;2024-01-16T11:24:08;99512.13;;;8.78;42.48
77939;BME280;67136;47.546;21.630;2024-01-16T11:27:22;99506.72;;;8.00;42.89
77939;BME280;67136;47.546;21.630;2024-01-16T11:30:30;99507.97;;;8.66;41.91
77939;BME280;67136;47.546;21.630;2024-01-16T11:36:51;99502.84;;;9.98;39.35
77939;BME280;67136;47.546;21.630;2024-01-16T11:43:37;99499.75;;;9.85;39.50
77939;BME280;67136;47.546;21.630;2024-01-16T11:47:02;99505.66;;;11.05;36.42
77939;BME280;67136;47.546;21.630;2024-01-16T11:50:10;99508.81;;;11.26;35.99
77939;BME280;67136;47.546;21.630;2024-01-16T11:53:36;99511.00;;;14.29;32.15
77939;BME280;67136;47.546;21.630;2024-01-16T12:00:19;99516.69;;;9.33;38.13
77939;BME280;67136;47.546;21.630;2024-01-16T12:03:22;99522.25;;;10.69;37.14
77939;BME280;67136;47.546;21.630;2024-01-16T12:06:37;99528.00;;;13.62;32.94
77939;BME280;67136;47.546;21.630;2024-01-16T12:09:43;99534.47;;;13.02;32.63
77939;BME280;67136;47.546;21.630;2024-01-16T12:12:46;99535.09;;;10.89;35.69
77939;BME280;67136;47.546;21.630;2024-01-16T12:16:02;99532.69;;;12.69;32.96
77939;BME280;67136;47.546;21.630;2024-01-16T12:19:08;99536.81;;;14.25;30.80
77939;BME280;67136;47.546;21.630;2024-01-16T12:22:15;99534.03;;;13.30;32.17
77939;BME280;67136;47.546;21.630;2024-01-16T12:25:21;99533.69;;;12.08;33.32
77939;BME280;67136;47.546;21.630;2024-01-16T12:28:25;99535.81;;;12.38;33.46
77939;BME280;67136;47.546;21.630;2024-01-16T12:31:33;99535.03;;;13.86;31.35
77939;BME280;67136;47.546;21.630;2024-01-16T12:34:45;99540.47;;;13.68;31.21
77939;BME280;67136;47.546;21.630;2024-01-16T12:38:01;99541.69;;;14.44;29.01
77939;BME280;67136;47.546;21.630;2024-01-16T12:41:12;99566.78;;;12.69;30.62
77939;BME280;67136;47.546;21.630;2024-01-16T12:44:15;99561.19;;;12.30;32.08
77939;BME280;67136;47.546;21.630;2024-01-16T12:47:20;99563.12;;;10.43;35.23
77939;BME280;67136;47.546;21.630;2024-01-16T12:50:26;99565.25;;;11.81;33.17
77939;BME280;67136;47.546;21.630;2024-01-16T12:53:30;99565.53;;;10.07;35.85
77939;BME280;67136;47.546;21.630;2024-01-16T12:56:34;99562.88;;;10.27;35.71
77939;BME280;67136;47.546;21.630;2024-01-16T12:59:40;99565.06;;;10.68;34.62
77939;BME280;67136;47.546;21.630;2024-01-16T13:02:49;99570.78;;;9.69;36.38
77939;BME280;67136;47.546;21.630;2024-01-16T13:05:59;99573.31;;;10.73;35.07
77939;BME280;67136;47.546;21.630;2024-01-16T13:09:10;99573.00;;;10.76;35.80
77939;BME280;67136;47.546;21.630;2024-01-16T13:12:21;99576.72;;;9.81;36.87
77939;BME280;67136;47.546;21.630;2024-01-16T13:15:23;99591.94;;;9.28;37.28
77939;BME280;67136;47.546;21.630;2024-01-16T13:18:27;99585.91;;;9.56;36.91
77939;BME280;67136;47.546;21.630;2024-01-16T13:21:30;99599.06;;;9.07;37.80
77939;BME280;67136;47.546;21.630;2024-01-16T13:24:33;99582.53;;;8.97;38.45
77939;BME280;67136;47.546;21.630;2024-01-16T13:27:35;99587.16;;;10.83;35.37
77939;BME280;67136;47.546;21.630;2024-01-16T13:30:43;99597.72;;;9.32;37.15
77939;BME280;67136;47.546;21.630;2024-01-16T13:33:49;99606.63;;;10.98;34.50
77939;BME280;67136;47.546;21.630;2024-01-16T13:36:52;99610.91;;;8.81;38.11
77939;BME280;67136;47.546;21.630;2024-01-16T13:40:16;99606.22;;;8.45;39.52
77939;BME280;67136;47.546;21.630;2024-01-16T13:43:27;99628.59;;;9.36;36.62
77939;BME280;67136;47.546;21.630;2024-01-16T13:46:29;99623.31;;;8.17;39.56
77939;BME280;67136;47.546;21.630;2024-01-16T13:49:52;99618.72;;;8.81;38.93
77939;BME280;67136;47.546;21.630;2024-01-16T13:52:55;99629.88;;;8.62;39.16
77939;BME280;67136;47.546;21.630;2024-01-16T13:55:58;99630.59;;;9.04;38.19
77939;BME280;67136;47.546;21.630;2024-01-16T13:59:00;99628.03;;;5.96;43.99
77939;BME280;67136;47.546;21.630;2024-01-16T14:02:04;99627.94;;;7.73;41.35
77939;BME280;67136;47.546;21.630;2024-01-16T14:05:12;99635.84;;;9.14;38.17
77939;BME280;67136;47.546;21.630;2024-01-16T14:08:21;99644.75;;;9.11;36.85
77939;BME280;67136;47.546;21.630;2024-01-16T14:11:24;99648.63;;;9.26;37.44
77939;BME280;67136;47.546;21.630;2024-01-16T14:14:26;99650.31;;;9.27;37.24
77939;BME280;67136;47.546;21.630;2024-01-16T14:17:30;99654.94;;;7.49;40.24
77939;BME280;67136;47.546;21.630;2024-01-16T14:20:33;99657.66;;;6.50;42.37
77939;BME280;67136;47.546;21.630;2024-01-16T14:23:38;99657.87;;;6.58;43.04
77939;BME280;67136;47.546;21.630;2024-01-16T14:26:42;99667.56;;;6.56;42.95
77939;BME280;67136;47.546;21.630;2024-01-16T14:29:48;99671.38;;;5.59;44.97
77939;BME280;67136;47.546;21.630;2024-01-16T14:32:51;99668.69;;;5.72;45.34
77939;BME280;67136;47.546;21.630;2024-01-16T14:35:54;99673.16;;;4.36;49.05
77939;BME280;67136;47.546;21.630;2024-01-16T14:39:00;99667.44;;;4.81;47.71
77939;BME280;67136;47.546;21.630;2024-01-16T14:42:03;99670.16;;;4.30;49.70
77939;BME280;67136;47.546;21.630;2024-01-16T14:45:06;99670.53;;;3.72;51.11
77939;BME280;67136;47.546;21.630;2024-01-16T14:48:11;99678.81;;;3.24;53.00
77939;BME280;67136;47.546;21.630;2024-01-16T14:51:14;99688.06;;;2.86;54.37
77939;BME280;67136;47.546;21.630;2024-01-16T14:54:19;99685.28;;;2.32;56.31
77939;BME280;67136;47.546;21.630;2024-01-16T14:57:22;99695.19;;;2.10;57.46
77939;BME280;67136;47.546;21.630;2024-01-16T15:00:25;99701.59;;;1.89;58.73
77939;BME280;67136;47.546;21.630;2024-01-16T15:03:32;99702.44;;;1.74;60.15
77939;BME280;67136;47.546;21.630;2024-01-16T15:06:36;99700.81;;;1.58;61.53
77939;BME280;67136;47.546;21.630;2024-01-16T15:09:38;99705.63;;;1.48;62.36
77939;BME280;67136;47.546;21.630;2024-01-16T15:12:45;99706.38;;;1.35;63.30
77939;BME280;67136;47.546;21.630;2024-01-16T15:15:48;99704.13;;;1.13;63.92
77939;BME280;67136;47.546;21.630;2024-01-16T15:18:54;99706.78;;;1.11;64.44
77939;BME280;67136;47.546;21.630;2024-01-16T15:21:59;99710.75;;;1.01;64.70
77939;BME280;67136;47.546;21.630;2024-01-16T15:25:02;99713.31;;;0.86;65.59
77939;BME280;67136;47.546;21.630;2024-01-16T15:28:07;99712.88;;;0.78;65.79
77939;BME280;67136;47.546;21.630;2024-01-16T15:31:11;99716.53;;;0.74;66.00
77939;BME280;67136;47.546;21.630;2024-01-16T15:34:15;99728.81;;;0.69;66.09
77939;BME280;67136;47.546;21.630;2024-01-16T15:37:19;99723.59;;;0.70;66.25
77939;BME280;67136;47.546;21.630;2024-01-16T15:40:23;99714.50;;;0.63;66.20
77939;BME280;67136;47.546;21.630;2024-01-16T15:43:29;99728.75;;;0.53;67.11
77939;BME280;67136;47.546;21.630;2024-01-16T15:46:33;99727.03;;;0.54;66.85
77939;BME280;67136;47.546;21.630;2024-01-16T15:49:36;99727.84;;;0.37;67.85
77939;BME280;67136;47.546;21.630;2024-01-16T15:52:41;99739.50;;;0.27;68.72
77939;BME280;67136;47.546;21.630;2024-01-16T15:55:44;99742.22;;;0.24;69.32
77939;BME280;67136;47.546;21.630;2024-01-16T15:58:47;99745.78;;;0.22;69.44
77939;BME280;67136;47.546;21.630;2024-01-16T16:01:50;99733.38;;;0.13;69.66
77939;BME280;67136;47.546;21.630;2024-01-16T16:04:55;99726.03;;;0.22;69.07
77939;BME280;67136;47.546;21.630;2024-01-16T16:07:58;99737.84;;;0.09;69.18
77939;BME280;67136;47.546;21.630;2024-01-16T16:11:01;99734.75;;;0.20;68.70
77939;BME280;67136;47.546;21.630;2024-01-16T16:14:05;99738.59;;;0.11;69.25
77939;BME280;67136;47.546;21.630;2024-01-16T16:17:09;99745.47;;;0.11;69.21